Time;durP1;ratioP1;P1;durP2;ratioP2;P2;SDS_P1;SDS_P2;PMS_P1;PMS_P2;Temp;Humidity;BMP_temperature;BMP_pressure;BME280_temperature;BME280_humidity;BME280_pressure;Samples;Min_cycle;Max_cycle;Signal;HPM_P1;HPM_P2
2022/03/23 00:00:26;;;;;;;64.57;25.93;;;12.20;33.50;;;;;;5009688;28;20215;-45
2022/03/23 00:02:53;;;;;;;61.00;24.67;;;12.10;33.50;;;;;;5005887;28;20230;-47
2022/03/23 00:05:23;;;;;;;71.53;28.07;;;12.10;33.60;;;;;;5009964;28;20353;-49
2022/03/23 00:07:50;;;;;;;69.87;28.97;;;12.00;33.60;;;;;;5005548;28;20199;-48
2022/03/23 00:10:17;;;;;;;69.40;27.77;;;11.90;33.70;;;;;;5003000;28;20250;-49
2022/03/23 00:12:44;;;;;;;74.77;27.53;;;12.00;33.90;;;;;;5003917;28;20222;-46
2022/03/23 00:15:12;;;;;;;68.63;26.90;;;11.90;34.00;;;;;;5006366;28;20199;-47
2022/03/23 00:17:40;;;;;;;68.77;27.30;;;11.90;34.10;;;;;;5004791;28;20218;-45
2022/03/23 00:20:08;;;;;;;63.27;25.57;;;11.90;34.10;;;;;;5000625;28;20226;-45
2022/03/23 00:22:37;;;;;;;59.97;26.03;;;12.00;34.20;;;;;;5006992;28;20191;-49
2022/03/23 00:25:04;;;;;;;60.17;25.57;;;11.90;34.10;;;;;;5005586;28;20195;-44
2022/03/23 00:27:31;;;;;;;57.40;22.63;;;11.90;34.10;;;;;;5009521;28;20233;-44
2022/03/23 00:29:59;;;;;;;54.47;21.83;;;11.90;34.10;;;;;;5009623;28;20206;-45
2022/03/23 00:32:26;;;;;;;58.17;23.87;;;12.00;34.30;;;;;;5008796;28;20577;-45
2022/03/23 00:34:54;;;;;;;45.83;20.60;;;11.90;34.20;;;;;;5006373;28;20562;-45
2022/03/23 00:37:21;;;;;;;48.80;20.53;;;11.80;34.20;;;;;;5009189;28;20212;-48
2022/03/23 00:39:49;;;;;;;63.13;26.13;;;11.80;34.30;;;;;;5009225;28;20204;-51
2022/03/23 00:42:17;;;;;;;62.20;24.80;;;11.80;34.60;;;;;;5009038;28;20196;-50
2022/03/23 00:44:44;;;;;;;58.40;24.30;;;11.80;34.50;;;;;;5005215;28;20210;-48
2022/03/23 00:47:11;;;;;;;55.27;23.93;;;11.90;34.60;;;;;;5009149;28;20204;-48
2022/03/23 00:49:39;;;;;;;61.30;25.33;;;11.90;34.60;;;;;;5009548;28;20695;-47
2022/03/23 00:52:07;;;;;;;58.03;25.20;;;11.90;34.60;;;;;;5005553;28;20202;-48
2022/03/23 00:54:35;;;;;;;82.40;33.47;;;11.90;34.60;;;;;;5007191;28;21431;-45
2022/03/23 00:57:06;;;;;;;69.37;29.83;;;11.90;34.80;;;;;;5005440;28;20201;-51
2022/03/23 00:59:33;;;;;;;65.97;29.33;;;11.90;34.90;;;;;;5002960;28;20554;-50
2022/03/23 01:02:01;;;;;;;73.80;29.43;;;11.90;35.00;;;;;;5002394;28;20704;-50
2022/03/23 01:04:29;;;;;;;67.60;29.13;;;11.80;34.90;;;;;;5008728;28;20253;-46
2022/03/23 01:06:57;;;;;;;73.33;29.53;;;11.90;35.10;;;;;;4998069;28;20325;-48
2022/03/23 01:09:25;;;;;;;63.00;25.93;;;11.80;35.10;;;;;;5007994;28;20198;-49
2022/03/23 01:11:55;;;;;;;61.03;26.80;;;11.80;35.10;;;;;;4991310;28;20213;-48
2022/03/23 01:14:25;;;;;;;60.67;25.17;;;11.70;35.10;;;;;;5002387;28;20218;-46
2022/03/23 01:16:53;;;;;;;80.47;31.90;;;11.60;35.20;;;;;;5007246;28;20223;-45
2022/03/23 01:19:22;;;;;;;71.30;28.47;;;11.60;35.30;;;;;;5007685;28;20202;-48
2022/03/23 01:21:49;;;;;;;64.00;26.00;;;11.50;35.40;;;;;;5002522;28;20197;-47
2022/03/23 01:24:16;;;;;;;61.30;23.87;;;11.40;35.40;;;;;;4999431;28;20227;-46
2022/03/23 01:26:43;;;;;;;50.77;21.33;;;11.40;35.50;;;;;;4989710;28;20639;-46
2022/03/23 01:29:11;;;;;;;53.07;22.07;;;11.30;35.70;;;;;;4990172;28;20221;-44
2022/03/23 01:31:42;;;;;;;45.77;20.23;;;11.30;35.70;;;;;;5006393;28;20672;-48
2022/03/23 01:34:09;;;;;;;53.53;22.40;;;11.40;35.90;;;;;;5003965;28;20253;-50
2022/03/23 01:36:36;;;;;;;48.93;21.70;;;11.40;35.90;;;;;;5006157;28;20195;-45
2022/03/23 01:39:04;;;;;;;50.50;22.70;;;11.40;35.90;;;;;;5007519;28;20272;-48
2022/03/23 01:41:36;;;;;;;57.23;24.93;;;11.30;35.90;;;;;;5007197;28;20299;-47
2022/03/23 01:44:13;;;;;;;54.20;23.80;;;11.30;36.00;;;;;;5009224;28;20713;-44
2022/03/23 01:47:06;;;;;;;50.60;21.87;;;11.20;36.00;;;;;;5011876;28;20694;-44
2022/03/23 01:49:34;;;;;;;48.67;21.17;;;11.10;36.00;;;;;;5012883;28;20198;-47
2022/03/23 01:52:02;;;;;;;55.60;23.57;;;11.10;36.20;;;;;;5010524;28;20208;-45
2022/03/23 01:54:32;;;;;;;52.90;22.63;;;11.00;36.30;;;;;;4994364;28;20229;-47
2022/03/23 01:57:00;;;;;;;48.27;20.77;;;11.00;36.40;;;;;;5012524;28;20209;-47
2022/03/23 01:59:27;;;;;;;52.67;22.40;;;10.90;36.40;;;;;;5012708;28;20279;-47
2022/03/23 02:01:58;;;;;;;55.07;23.30;;;10.90;36.50;;;;;;5010161;28;20195;-48
2022/03/23 02:04:27;;;;;;;57.50;24.13;;;10.90;36.70;;;;;;5009474;28;20254;-53
2022/03/23 02:06:55;;;;;;;54.90;23.77;;;10.80;36.70;;;;;;5011257;28;20227;-46
2022/03/23 02:09:26;;;;;;;55.93;24.70;;;10.80;36.70;;;;;;5008573;28;20669;-50
2022/03/23 02:11:55;;;;;;;54.57;25.13;;;10.80;36.80;;;;;;5004340;28;20220;-48
2022/03/23 02:14:23;;;;;;;50.00;21.23;;;10.70;36.90;;;;;;5025933;28;20254;-46
2022/03/23 02:16:53;;;;;;;54.37;24.13;;;10.80;37.00;;;;;;5007584;28;20216;-51
2022/03/23 02:19:22;;;;;;;52.13;23.23;;;10.70;37.10;;;;;;5026624;28;20559;-46
2022/03/23 02:21:52;;;;;;;50.07;21.47;;;10.70;37.20;;;;;;5015429;28;20684;-50
2022/03/23 02:24:23;;;;;;;46.10;20.07;;;10.70;37.20;;;;;;5008912;28;20200;-44
2022/03/23 02:26:51;;;;;;;44.70;19.60;;;10.80;37.20;;;;;;5027577;28;20281;-49
2022/03/23 02:29:20;;;;;;;52.20;21.53;;;10.70;37.20;;;;;;5018517;28;20250;-50
2022/03/23 02:31:47;;;;;;;47.27;21.17;;;10.80;37.40;;;;;;5028746;28;20210;-49
2022/03/23 02:34:14;;;;;;;41.90;18.10;;;10.70;37.30;;;;;;5029412;28;20221;-52
2022/03/23 02:36:41;;;;;;;43.37;18.93;;;10.70;37.40;;;;;;5026781;28;20203;-49
2022/03/23 02:39:10;;;;;;;47.13;20.60;;;10.60;37.30;;;;;;5023085;28;20210;-45
2022/03/23 02:41:39;;;;;;;46.43;20.10;;;10.60;37.30;;;;;;5028753;28;20616;-44
2022/03/23 02:44:08;;;;;;;53.93;22.13;;;10.60;37.40;;;;;;5028363;28;20652;-47
2022/03/23 02:46:36;;;;;;;43.50;18.37;;;10.60;37.40;;;;;;5025888;28;20210;-47
2022/03/23 02:49:04;;;;;;;61.40;26.17;;;10.60;37.40;;;;;;5028409;28;20199;-48
2022/03/23 02:51:31;;;;;;;57.47;24.67;;;10.60;37.50;;;;;;5028385;28;20671;-49
2022/03/23 03:02:30;;;;;;;50.70;21.43;;;10.60;37.70;;;;;;5008576;28;20226;-53
2022/03/23 03:04:57;;;;;;;51.67;21.07;;;10.50;37.80;;;;;;5028738;28;20266;-53
2022/03/23 03:07:24;;;;;;;47.77;19.93;;;10.50;37.90;;;;;;5023891;28;20200;-51
2022/03/23 03:09:51;;;;;;;45.77;19.10;;;10.40;37.90;;;;;;4999443;28;20210;-53
2022/03/23 03:12:19;;;;;;;47.27;19.30;;;10.40;38.10;;;;;;5027213;28;20202;-51
2022/03/23 03:14:47;;;;;;;46.27;20.63;;;10.30;38.10;;;;;;5023006;28;20667;-53
2022/03/23 03:17:14;;;;;;;43.10;20.00;;;10.40;38.30;;;;;;5014712;28;20721;-54
2022/03/23 03:19:41;;;;;;;51.03;22.93;;;10.40;38.40;;;;;;5020485;28;20203;-46
2022/03/23 03:22:09;;;;;;;44.43;20.03;;;10.40;38.40;;;;;;5022599;28;20207;-46
2022/03/23 03:24:37;;;;;;;45.83;19.23;;;10.40;38.50;;;;;;5004488;28;20546;-47
2022/03/23 03:27:04;;;;;;;46.33;19.27;;;10.40;38.60;;;;;;5020139;28;20709;-48
2022/03/23 03:29:33;;;;;;;48.47;20.70;;;10.40;38.60;;;;;;5027473;28;20674;-48
2022/03/23 03:32:00;;;;;;;51.93;21.17;;;10.30;38.60;;;;;;5026344;28;20200;-49
2022/03/23 03:34:27;;;;;;;47.07;20.73;;;10.30;38.80;;;;;;5009367;28;20268;-53
2022/03/23 03:36:54;;;;;;;45.73;20.03;;;10.30;38.90;;;;;;5023366;28;20673;-53
2022/03/23 03:39:21;;;;;;;42.10;18.63;;;10.30;39.10;;;;;;5013011;28;20198;-51
2022/03/23 03:41:48;;;;;;;51.83;21.23;;;10.20;39.00;;;;;;5028582;28;20216;-49
2022/03/23 03:44:15;;;;;;;48.10;20.77;;;10.20;39.10;;;;;;5030013;28;20194;-45
2022/03/23 03:46:45;;;;;;;43.83;19.47;;;10.20;39.10;;;;;;5026425;28;20257;-45
2022/03/23 03:49:15;;;;;;;45.07;20.00;;;10.20;39.10;;;;;;5027698;28;20249;-46
2022/03/23 03:51:42;;;;;;;48.33;19.47;;;10.20;39.20;;;;;;5029078;28;20273;-45
2022/03/23 03:54:09;;;;;;;52.10;22.13;;;10.10;39.20;;;;;;5026378;28;20217;-49
2022/03/23 03:56:36;;;;;;;46.47;20.27;;;10.10;39.40;;;;;;5029214;28;20194;-45
2022/03/23 03:59:03;;;;;;;41.53;18.83;;;10.10;39.40;;;;;;5027858;28;20213;-46
2022/03/23 04:01:30;;;;;;;54.97;20.67;;;10.10;39.40;;;;;;5026346;28;20613;-45
2022/03/23 04:03:58;;;;;;;38.97;17.97;;;10.10;39.50;;;;;;5027080;28;20703;-43
2022/03/23 04:06:26;;;;;;;46.73;20.40;;;10.10;39.40;;;;;;5027097;28;20237;-44
2022/03/23 04:08:53;;;;;;;49.70;20.37;;;10.10;39.50;;;;;;5024397;28;20805;-48
2022/03/23 04:11:20;;;;;;;41.53;18.40;;;10.10;39.70;;;;;;5027464;28;20203;-48
2022/03/23 04:13:47;;;;;;;46.23;20.37;;;10.10;39.60;;;;;;5024788;28;20692;-44
2022/03/23 04:16:14;;;;;;;55.47;21.93;;;10.10;39.70;;;;;;5023918;28;20194;-48
2022/03/23 04:18:42;;;;;;;44.97;19.30;;;10.00;39.70;;;;;;5028833;28;20582;-45
2022/03/23 04:21:11;;;;;;;40.63;18.87;;;10.00;39.70;;;;;;5010805;28;20206;-46
2022/03/23 04:23:38;;;;;;;46.87;19.27;;;9.90;40.60;;;;;;5028722;28;20202;-44
2022/03/23 04:26:05;;;;;;;42.10;17.47;;;9.90;40.70;;;;;;5025667;28;22157;-47
2022/03/23 04:28:32;;;;;;;44.00;17.87;;;9.90;40.80;;;;;;5024917;28;20203;-47
2022/03/23 04:31:01;;;;;;;42.00;17.47;;;9.90;40.90;;;;;;5018602;28;20211;-49
2022/03/23 04:33:28;;;;;;;40.27;17.03;;;9.90;40.80;;;;;;5018703;28;20259;-47
2022/03/23 04:35:55;;;;;;;39.03;17.43;;;9.90;40.80;;;;;;5023697;28;20204;-46
2022/03/23 04:38:25;;;;;;;41.40;18.30;;;9.90;40.70;;;;;;5017325;28;20187;-46
2022/03/23 04:40:52;;;;;;;42.87;18.30;;;9.90;40.80;;;;;;5006333;28;20209;-45
2022/03/23 04:43:20;;;;;;;44.67;18.90;;;10.00;40.00;;;;;;5023385;28;20206;-45
2022/03/23 04:45:47;;;;;;;42.37;18.43;;;9.90;40.90;;;;;;5016635;28;20194;-47
2022/03/23 04:48:14;;;;;;;43.70;19.33;;;9.90;41.10;;;;;;5022665;28;20203;-47
2022/03/23 04:50:41;;;;;;;40.60;17.87;;;9.90;41.10;;;;;;5029233;28;20199;-47
2022/03/23 04:53:08;;;;;;;40.10;17.87;;;9.90;41.20;;;;;;5018282;28;20250;-45
2022/03/23 04:55:37;;;;;;;39.17;17.10;;;9.80;41.10;;;;;;5028167;28;20269;-51
2022/03/23 04:58:04;;;;;;;38.37;17.37;;;9.80;41.30;;;;;;5023401;28;20225;-49
2022/03/23 05:00:33;;;;;;;45.33;18.37;;;9.70;41.20;;;;;;5017420;28;20211;-48
2022/03/23 05:03:00;;;;;;;42.83;18.03;;;9.80;41.40;;;;;;5024419;28;20206;-46
2022/03/23 05:05:27;;;;;;;38.73;17.53;;;9.80;41.40;;;;;;5022896;28;20245;-49
2022/03/23 05:07:54;;;;;;;44.53;18.07;;;9.70;41.30;;;;;;5018557;28;20201;-46
2022/03/23 05:10:21;;;;;;;38.87;16.67;;;9.70;41.40;;;;;;5016144;28;20201;-49
2022/03/23 05:12:51;;;;;;;38.53;15.93;;;9.70;41.40;;;;;;5021322;28;20211;-50
2022/03/23 05:15:19;;;;;;;37.00;14.70;;;9.60;41.40;;;;;;5014743;28;20213;-45
2022/03/23 05:17:46;;;;;;;37.30;15.83;;;9.70;41.40;;;;;;5023659;28;20350;-46
2022/03/23 05:20:15;;;;;;;35.97;15.77;;;9.60;41.30;;;;;;5024429;28;20696;-46
2022/03/23 05:22:42;;;;;;;36.73;15.60;;;9.70;41.30;;;;;;5025554;28;20211;-48
2022/03/23 05:25:10;;;;;;;36.07;15.90;;;9.70;41.20;;;;;;5024848;28;20192;-49
2022/03/23 05:27:40;;;;;;;40.93;17.17;;;9.80;41.40;;;;;;5030872;28;20214;-45
2022/03/23 05:30:11;;;;;;;38.70;16.80;;;9.80;41.40;;;;;;5016277;28;20222;-47
2022/03/23 05:32:40;;;;;;;38.03;16.17;;;9.90;41.40;;;;;;5027315;28;20629;-46
2022/03/23 05:35:09;;;;;;;31.00;15.30;;;9.90;41.40;;;;;;5032704;28;20686;-47
2022/03/23 05:37:36;;;;;;;37.80;15.47;;;9.90;41.30;;;;;;5028967;28;20190;-46
2022/03/23 05:40:04;;;;;;;35.80;15.23;;;9.90;41.30;;;;;;5032202;28;20252;-48
2022/03/23 05:42:31;;;;;;;40.03;17.20;;;9.90;41.30;;;;;;5024171;28;20200;-47
2022/03/23 05:44:58;;;;;;;36.40;15.33;;;9.90;41.50;;;;;;5028549;28;20702;-45
2022/03/23 05:47:26;;;;;;;54.30;21.47;;;9.90;41.60;;;;;;5029963;28;20606;-45
2022/03/23 05:49:54;;;;;;;44.83;19.13;;;9.90;41.70;;;;;;5013771;28;20202;-46
2022/03/23 05:52:21;;;;;;;58.20;19.53;;;9.90;41.90;;;;;;5017034;28;20199;-50
2022/03/23 05:54:48;;;;;;;43.73;18.33;;;10.00;41.10;;;;;;5030831;28;20218;-45
2022/03/23 05:57:15;;;;;;;37.40;16.50;;;10.00;41.10;;;;;;5025437;28;20212;-47
2022/03/23 05:59:42;;;;;;;36.77;15.87;;;10.00;41.20;;;;;;5026103;28;20205;-47
2022/03/23 06:02:09;;;;;;;39.33;15.93;;;10.00;41.20;;;;;;5030081;28;20681;-48
2022/03/23 06:04:38;;;;;;;30.13;13.87;;;10.10;41.20;;;;;;5023813;28;21160;-45
2022/03/23 06:07:05;;;;;;;45.47;16.00;;;10.10;41.20;;;;;;5015512;28;20349;-47
2022/03/23 06:09:32;;;;;;;31.57;14.30;;;10.20;41.20;;;;;;5009936;28;20298;-50
2022/03/23 06:12:01;;;;;;;30.40;13.93;;;10.30;41.20;;;;;;5010116;28;20202;-44
2022/03/23 06:14:28;;;;;;;27.10;12.33;;;10.30;41.00;;;;;;5005138;28;20212;-46
2022/03/23 06:16:55;;;;;;;25.93;12.33;;;10.50;40.90;;;;;;4991127;28;20206;-47
2022/03/23 06:19:22;;;;;;;27.57;12.30;;;10.50;40.70;;;;;;5011238;28;20197;-44
2022/03/23 06:21:50;;;;;;;24.73;11.93;;;10.60;40.70;;;;;;5015444;28;20278;-46
2022/03/23 06:24:18;;;;;;;23.40;11.27;;;10.70;40.60;;;;;;4988427;28;20683;-45
2022/03/23 06:26:45;;;;;;;21.50;10.93;;;10.80;40.50;;;;;;5011335;28;20195;-46
2022/03/23 06:29:12;;;;;;;25.40;12.63;;;11.00;40.50;;;;;;5017145;28;20626;-45
2022/03/23 06:31:39;;;;;;;28.90;12.37;;;11.20;40.40;;;;;;5009646;28;20222;-48
2022/03/23 06:34:07;;;;;;;31.30;12.83;;;11.40;40.30;;;;;;5017848;28;20203;-50
2022/03/23 06:36:35;;;;;;;25.57;12.13;;;11.60;40.30;;;;;;5013537;28;20201;-50
2022/03/23 06:39:04;;;;;;;34.80;13.13;;;11.60;40.10;;;;;;5008694;28;20606;-45
2022/03/23 06:41:32;;;;;;;23.93;10.97;;;11.80;40.20;;;;;;5003434;28;20703;-52
2022/03/23 06:44:00;;;;;;;25.93;11.43;;;11.90;40.20;;;;;;5012526;28;20202;-47
2022/03/23 06:46:27;;;;;;;25.47;11.77;;;11.90;40.00;;;;;;5009423;28;20287;-50
2022/03/23 06:48:54;;;;;;;24.13;10.83;;;12.00;40.00;;;;;;5019145;28;20278;-51
2022/03/23 06:51:21;;;;;;;20.40;9.73;;;12.20;40.10;;;;;;5018406;28;20404;-45
2022/03/23 06:53:48;;;;;;;22.87;10.90;;;12.20;39.90;;;;;;5008514;28;20285;-46
2022/03/23 06:56:17;;;;;;;20.57;10.63;;;12.30;39.80;;;;;;5017171;28;20214;-45
2022/03/23 06:58:44;;;;;;;16.17;8.50;;;12.40;39.80;;;;;;5025695;28;20202;-54
2022/03/23 07:01:11;;;;;;;25.43;13.33;;;12.40;39.60;;;;;;5012430;28;20235;-51
2022/03/23 07:03:38;;;;;;;29.17;13.03;;;12.50;39.60;;;;;;5012262;28;20206;-52
2022/03/23 07:06:05;;;;;;;24.20;11.93;;;12.60;39.50;;;;;;5017748;28;20301;-52
2022/03/23 07:11:18;;;;;;;29.90;13.73;;;12.80;39.40;;;;;;5030199;28;20742;-51
2022/03/23 07:13:45;;;;;;;41.87;17.47;;;12.90;39.30;;;;;;5032011;28;20205;-53
2022/03/23 07:16:12;;;;;;;37.73;17.50;;;12.90;39.10;;;;;;5021299;28;20211;-49
2022/03/23 07:18:40;;;;;;;36.07;16.13;;;13.00;39.10;;;;;;5029141;28;20201;-48
2022/03/23 07:21:07;;;;;;;27.23;13.40;;;13.10;38.70;;;;;;5011862;28;20203;-47
2022/03/23 07:23:35;;;;;;;25.23;12.40;;;13.20;38.20;;;;;;5024166;28;20199;-52
2022/03/23 07:26:02;;;;;;;23.67;10.87;;;13.30;37.80;;;;;;5022078;28;20262;-53
2022/03/23 07:28:31;;;;;;;17.27;9.43;;;13.40;37.30;;;;;;5029126;28;20226;-50
2022/03/23 07:30:58;;;;;;;13.63;7.40;;;13.50;36.80;;;;;;5024369;28;20206;-48
2022/03/23 07:33:26;;;;;;;10.87;6.90;;;13.60;36.30;;;;;;5028587;28;20198;-46
2022/03/23 07:35:53;;;;;;;11.23;7.37;;;13.70;35.90;;;;;;5028361;28;20641;-52
2022/03/23 07:38:20;;;;;;;13.97;7.27;;;13.80;35.50;;;;;;5026425;28;20256;-52
2022/03/23 07:40:48;;;;;;;9.83;5.90;;;13.90;35.10;;;;;;5008503;28;20212;-49
2022/03/23 07:43:15;;;;;;;10.77;6.70;;;14.10;34.90;;;;;;5026963;28;20206;-48
2022/03/23 07:45:44;;;;;;;14.20;6.27;;;14.20;34.50;;;;;;5025523;28;20718;-45
2022/03/23 07:48:11;;;;;;;9.57;5.83;;;14.30;34.10;;;;;;5028900;28;20279;-48
2022/03/23 07:50:38;;;;;;;8.60;5.73;;;14.40;33.70;;;;;;5029698;28;20258;-44
2022/03/23 07:53:05;;;;;;;10.70;6.73;;;14.50;33.40;;;;;;5025273;28;20568;-44
2022/03/23 07:55:32;;;;;;;8.77;6.00;;;14.60;33.10;;;;;;5028686;28;20291;-47
2022/03/23 07:58:00;;;;;;;9.47;5.90;;;14.60;32.60;;;;;;5028344;28;20201;-48
2022/03/23 08:00:27;;;;;;;10.03;6.33;;;14.70;32.30;;;;;;5025647;28;20196;-53
2022/03/23 08:02:55;;;;;;;11.57;6.60;;;14.80;31.90;;;;;;5028661;28;20198;-47
2022/03/23 08:05:22;;;;;;;10.23;6.70;;;15.00;31.70;;;;;;5027348;28;20244;-46
2022/03/23 08:07:50;;;;;;;10.17;7.10;;;15.50;31.50;;;;;;5006311;28;20647;-50
2022/03/23 08:10:17;;;;;;;15.63;8.67;;;16.80;30.80;;;;;;5006595;28;20198;-47
2022/03/23 08:12:44;;;;;;;13.97;8.03;;;18.40;29.70;;;;;;5015671;28;20203;-49
2022/03/23 08:15:11;;;;;;;17.40;7.80;;;19.80;28.90;;;;;;5012024;28;20283;-51
2022/03/23 08:17:39;;;;;;;11.63;7.70;;;20.90;28.00;;;;;;5008239;28;20202;-53
2022/03/23 08:22:54;;;;;;;17.57;8.47;;;22.60;26.60;;;;;;5001587;28;20203;-46
2022/03/23 08:25:22;;;;;;;12.88;7.15;;;23.40;25.60;;;;;;5012168;28;20645;-45
2022/03/23 08:27:49;;;;;;;11.60;6.85;;;24.00;25.30;;;;;;5011539;28;20251;-46
2022/03/23 08:30:16;;;;;;;7.93;6.38;;;24.50;24.70;;;;;;5006811;28;20207;-45
2022/03/23 08:32:43;;;;;;;9.98;6.65;;;25.00;24.50;;;;;;5011089;28;20285;-48
2022/03/23 08:35:12;;;;;;;11.73;6.78;;;25.70;24.00;;;;;;5009179;28;20579;-47
2022/03/23 08:37:39;;;;;;;14.45;8.30;;;26.20;23.60;;;;;;4990420;28;20195;-47
2022/03/23 08:40:07;;;;;;;10.25;6.72;;;26.60;22.80;;;;;;5009778;28;20210;-43
2022/03/23 08:42:35;;;;;;;9.80;5.88;;;27.10;22.50;;;;;;5010094;28;20195;-45
2022/03/23 08:45:02;;;;;;;6.72;5.68;;;27.60;22.30;;;;;;5004161;28;20207;-48
2022/03/23 08:47:30;;;;;;;10.40;6.55;;;28.10;22.20;;;;;;5013694;28;20682;-48
2022/03/23 08:49:57;;;;;;;8.85;5.65;;;28.40;21.70;;;;;;5018850;28;20211;-46
2022/03/23 08:52:28;;;;;;;9.70;6.53;;;28.60;21.50;;;;;;5014816;28;20203;-44
2022/03/23 08:54:55;;;;;;;5.93;5.40;;;29.00;21.40;;;;;;5012954;28;20187;-46
2022/03/23 08:57:23;;;;;;;7.80;6.30;;;29.40;21.10;;;;;;5012812;28;20567;-46
2022/03/23 08:59:50;;;;;;;11.52;7.28;;;29.60;20.90;;;;;;5010773;28;20202;-47
2022/03/23 09:02:17;;;;;;;16.63;8.43;;;29.70;20.50;;;;;;4997918;28;20675;-49
2022/03/23 09:04:45;;;;;;;17.45;9.52;;;29.80;20.10;;;;;;5010109;28;20694;-46
2022/03/23 09:07:12;;;;;;;9.82;7.43;;;30.00;19.50;;;;;;5031262;28;20257;-50
2022/03/23 09:09:40;;;;;;;22.15;7.53;;;30.40;19.60;;;;;;5032212;28;20713;-46
2022/03/23 09:12:09;;;;;;;9.38;7.25;;;30.60;19.60;;;;;;5028784;28;20195;-45
2022/03/23 09:14:36;;;;;;;10.25;7.20;;;30.80;19.40;;;;;;5032743;28;20655;-49
2022/03/23 09:17:03;;;;;;;9.63;6.45;;;30.70;19.40;;;;;;5028518;28;20317;-46
2022/03/23 09:19:31;;;;;;;7.95;7.13;;;30.50;19.40;;;;;;5029505;28;20206;-46
2022/03/23 09:21:59;;;;;;;7.70;6.68;;;30.40;19.20;;;;;;5032483;28;20198;-48
2022/03/23 09:24:26;;;;;;;10.35;7.65;;;30.40;19.40;;;;;;5030209;28;20281;-46
2022/03/23 09:26:55;;;;;;;10.73;8.80;;;30.70;19.10;;;;;;5026366;28;20662;-46
2022/03/23 09:29:23;;;;;;;9.32;7.50;;;31.10;18.70;;;;;;5032170;28;20202;-45
2022/03/23 09:31:50;;;;;;;9.13;7.55;;;31.40;18.70;;;;;;5031511;28;20226;-47
2022/03/23 09:34:17;;;;;;;11.50;7.90;;;31.60;18.80;;;;;;5028517;28;20191;-47
2022/03/23 09:39:28;;;;;;;10.40;7.13;;;32.20;18.60;;;;;;5030817;28;20195;-48
2022/03/23 09:41:59;;;;;;;7.65;6.57;;;32.40;18.50;;;;;;5025365;28;20310;-50
2022/03/23 09:44:28;;;;;;;9.90;6.97;;;32.60;18.50;;;;;;5016524;28;20210;-50
2022/03/23 09:46:56;;;;;;;10.77;7.88;;;32.70;18.50;;;;;;5029798;28;20191;-50
2022/03/23 09:49:24;;;;;;;13.43;8.32;;;32.90;18.40;;;;;;5029871;28;20269;-50
2022/03/23 09:51:53;;;;;;;11.60;8.50;;;33.10;18.30;;;;;;5030467;28;20203;-45
2022/03/23 09:54:22;;;;;;;16.05;9.70;;;33.20;18.20;;;;;;5030408;28;20202;-48
2022/03/23 09:56:49;;;;;;;13.75;10.57;;;33.20;18.00;;;;;;5030900;28;20215;-45
2022/03/23 09:59:18;;;;;;;15.85;8.73;;;33.30;17.90;;;;;;5029431;28;20558;-48
2022/03/23 10:02:30;;;;;;;13.77;9.35;;;33.40;18.00;;;;;;5029708;28;20194;-45
2022/03/23 10:05:47;;;;;;;13.27;9.27;;;33.50;18.00;;;;;;5029342;28;20202;-49
2022/03/23 10:09:00;;;;;;;15.18;10.27;;;33.70;17.80;;;;;;5027104;28;20205;-47
2022/03/23 10:12:21;;;;;;;20.50;11.63;;;33.90;17.90;;;;;;5030294;28;20190;-44
2022/03/23 10:15:26;;;;;;;15.15;10.75;;;34.00;17.90;;;;;;5026945;28;20195;-47
2022/03/23 10:18:27;;;;;;;12.77;9.98;;;34.20;18.00;;;;;;5029593;28;20757;-46
2022/03/23 10:20:54;;;;;;;14.98;10.95;;;34.40;18.00;;;;;;5027651;28;20201;-45
2022/03/23 10:23:21;;;;;;;13.55;9.48;;;34.60;18.10;;;;;;5025211;28;20574;-44
2022/03/23 10:25:49;;;;;;;22.13;10.35;;;34.70;18.10;;;;;;5029865;28;20203;-49
2022/03/23 10:28:18;;;;;;;21.02;12.07;;;34.70;18.10;;;;;;5029707;28;20555;-48
2022/03/23 10:30:46;;;;;;;17.88;11.48;;;34.70;17.90;;;;;;5027738;28;20305;-49
2022/03/23 10:33:19;;;;;;;17.60;10.98;;;34.80;17.90;;;;;;5030279;28;20237;-47
2022/03/23 10:35:47;;;;;;;19.05;13.10;;;34.90;17.80;;;;;;5027199;28;20203;-45
2022/03/23 10:38:16;;;;;;;19.98;12.35;;;35.10;17.40;;;;;;5029832;28;20199;-48
2022/03/23 10:40:44;;;;;;;14.18;10.80;;;35.10;17.20;;;;;;5012404;28;21036;-48
2022/03/23 10:43:13;;;;;;;14.10;10.52;;;35.10;17.30;;;;;;5030173;28;20209;-46
2022/03/23 10:45:40;;;;;;;15.93;11.68;;;35.10;17.30;;;;;;5027478;28;20201;-44
2022/03/23 10:48:11;;;;;;;15.00;9.93;;;35.20;17.60;;;;;;5030007;28;20195;-49
2022/03/23 10:50:51;;;;;;;16.88;10.93;;;35.30;17.70;;;;;;5028626;28;20214;-46
2022/03/23 10:53:30;;;;;;;20.35;14.38;;;35.30;17.70;;;;;;5027739;28;20195;-48
2022/03/23 10:55:57;;;;;;;21.50;14.70;;;35.30;17.50;;;;;;5029514;28;20678;-47
2022/03/23 10:58:26;;;;;;;25.40;17.10;;;35.30;17.50;;;;;;5030769;28;20261;-46
2022/03/23 11:00:59;;;;;;;23.30;15.38;;;35.20;17.50;;;;;;5026028;28;20198;-47
2022/03/23 11:03:40;;;;;;;19.48;13.77;;;35.00;17.70;;;;;;5028302;28;20210;-50
2022/03/23 11:06:11;;;;;;;20.58;13.43;;;34.90;18.00;;;;;;5025323;28;20234;-45
2022/03/23 11:08:39;;;;;;;16.13;12.05;;;34.80;18.30;;;;;;5005811;28;20442;-47
2022/03/23 11:16:44;;;;;;;20.67;12.70;;;34.60;19.40;;;;;;5007552;28;20313;-47
2022/03/23 11:19:18;;;;;;;17.25;13.93;;;34.30;19.70;;;;;;5012831;28;20586;-44
2022/03/23 11:22:05;;;;;;;19.55;13.27;;;34.20;19.90;;;;;;5004640;28;20286;-44
2022/03/23 11:24:36;;;;;;;22.25;14.00;;;34.10;20.10;;;;;;5014104;28;20249;-50
2022/03/23 11:27:05;;;;;;;22.48;13.18;;;33.90;20.20;;;;;;5009966;28;20199;-45
2022/03/23 11:29:33;;;;;;;21.42;12.10;;;33.60;20.40;;;;;;5008432;28;20199;-49
2022/03/23 11:32:04;;;;;;;18.60;10.82;;;33.50;20.50;;;;;;5007415;28;20536;-53
2022/03/23 11:34:34;;;;;;;17.80;11.30;;;33.50;20.70;;;;;;4998371;28;20190;-46
2022/03/23 11:37:04;;;;;;;19.25;12.68;;;33.50;20.80;;;;;;5004334;28;20302;-48
2022/03/23 11:39:32;;;;;;;14.07;9.88;;;33.50;20.90;;;;;;5012751;28;20199;-45
2022/03/23 11:41:59;;;;;;;12.25;9.40;;;33.60;20.90;;;;;;5007148;28;20199;-46
2022/03/23 11:44:28;;;;;;;12.68;10.10;;;33.80;20.90;;;;;;4996357;28;20611;-46
2022/03/23 11:47:05;;;;;;;22.58;14.38;;;34.00;20.90;;;;;;5014072;28;20195;-46
2022/03/23 11:49:41;;;;;;;14.57;11.82;;;34.00;20.60;;;;;;5009585;28;20187;-46
2022/03/23 11:52:23;;;;;;;22.45;13.38;;;33.90;20.60;;;;;;4986408;28;20693;-49
2022/03/23 11:58:05;;;;;;;23.40;14.07;;;33.60;20.60;;;;;;5010110;28;20218;-48
2022/03/23 12:00:41;;;;;;;20.58;12.27;;;33.30;20.60;;;;;;5007428;28;20296;-45
2022/03/23 12:03:08;;;;;;;18.10;11.27;;;33.00;20.80;;;;;;5009203;28;20198;-44
2022/03/23 12:05:36;;;;;;;29.17;15.80;;;32.90;20.90;;;;;;4996036;28;20333;-46
2022/03/23 12:08:05;;;;;;;21.73;13.25;;;32.80;21.00;;;;;;5024224;28;20275;-47
2022/03/23 12:10:43;;;;;;;20.20;14.07;;;32.60;21.10;;;;;;5032037;28;20529;-48
2022/03/23 12:13:14;;;;;;;28.23;14.93;;;32.40;21.80;;;;;;5028515;28;20573;-48
2022/03/23 12:15:56;;;;;;;16.08;12.10;;;32.20;21.40;;;;;;5006563;28;20285;-50
2022/03/23 12:18:39;;;;;;;20.63;13.32;;;32.00;21.50;;;;;;5028858;28;20203;-53
2022/03/23 12:21:11;;;;;;;24.60;14.15;;;31.70;21.60;;;;;;5023265;28;20194;-47
2022/03/23 12:23:53;;;;;;;18.58;13.85;;;31.50;21.70;;;;;;5022575;28;20266;-51
2022/03/23 12:26:29;;;;;;;21.52;14.15;;;31.30;21.90;;;;;;5028625;28;20190;-50
2022/03/23 12:29:03;;;;;;;20.80;12.40;;;31.10;22.20;;;;;;5028577;28;20285;-49
2022/03/23 12:31:37;;;;;;;24.77;13.70;;;30.80;22.30;;;;;;5011721;28;20198;-47
2022/03/23 12:34:14;;;;;;;17.50;10.50;;;30.60;22.50;;;;;;5026375;28;20245;-50
2022/03/23 12:37:04;;;;;;;19.48;12.07;;;30.50;22.70;;;;;;5027151;28;20721;-53
2022/03/23 12:39:35;;;;;;;15.60;11.93;;;30.40;22.90;;;;;;5028370;28;20642;-52
2022/03/23 12:42:19;;;;;;;16.75;12.38;;;30.20;23.00;;;;;;5025750;28;20599;-50
2022/03/23 12:44:48;;;;;;;16.13;10.68;;;29.80;23.10;;;;;;5027148;28;20201;-51
2022/03/23 12:47:20;;;;;;;17.35;12.32;;;29.50;23.40;;;;;;5024905;28;20544;-48
2022/03/23 12:58:11;;;;;;;16.25;11.73;;;29.10;24.10;;;;;;5025932;28;20257;-47
2022/03/23 13:00:41;;;;;;;18.55;12.18;;;29.50;24.20;;;;;;5007042;28;20559;-47
2022/03/23 13:04:00;;;;;;;17.15;11.05;;;29.80;24.10;;;;;;5025491;28;20516;-50
2022/03/23 13:06:39;;;;;;;17.63;11.43;;;30.00;24.00;;;;;;5008119;28;20563;-47
2022/03/23 13:09:12;;;;;;;22.35;12.73;;;30.30;23.80;;;;;;5002037;28;20207;-51
2022/03/23 13:11:42;;;;;;;17.30;10.45;;;30.30;23.60;;;;;;5027118;28;20201;-47
2022/03/23 13:14:09;;;;;;;21.63;12.70;;;29.80;23.80;;;;;;5028110;28;20205;-51
2022/03/23 13:16:38;;;;;;;21.70;13.85;;;28.60;24.20;;;;;;5021546;28;20619;-52